Terminal Aerodrome Forecast
Issued by NWS Duluth, MN

Home | Current Version | Previous Version | Text Only | Print | Product List | Glossary On
Versions: 1 2 3 4 5 6 7 8 9 10 11 12 13 14
000
FTUS43 KDLH 240252 AAA
TAFINL
TAF AMD
KINL 240252Z 2403/2424 15007KT P6SM SCT023 BKN080
      TEMPO 2404/2406 6SM -TSRA BR BKN023CB
     FM240600 18004KT 4SM -SHRA BR VCTS SCT007 OVC015CB
     FM240800 22004KT 4SM BR OVC013
     FM241300 27011G16KT P6SM BKN017
     FM241700 28014G21KT P6SM BKN040=

USA.gov is the U.S. government's official web portal to all federal, state and local government web resources and services.